Hamburg Airport

Airport
ICAO code: 
EDDH
IATA Code: 
HAM
Summary
ICAO Region: 
EUR
Territory: 
Location: 
Fuhlsbuettel,
Serving: 
Hamburg
Elevation: 
53 ft
Coordinates: 
Aerial View: 
53° 37' 48" N, 9° 59' 18" E
Metar
Observation
EDDH 170650Z 28024G35KT 8000 -RADZ BKN014 07/06 Q1019 TEMPO 4000 BKN009
Station
Hamburg-Fuhlsbuettel
Date/Time
2022-01-17 06:50:00
Wind direction
280°
Wind speed
24 kts
Lowest cloud amount
broken clouds
Temperature
7°C
Dew point
6°C
Humidity
93%
QNH
1019 hPa
Weather condition
n/a

Description

International airport serving Hamburg, Germany.

Climatology

Temperate Marine climate/Oceanic climate (Köppen climate classification Cfb) - Moderately cool summer and comparatively warm winter.

Runways

Designator Length Width Surface Rops
5/23 3250 46 ASP Yes/Yes
15/33 3666 46 ASP Yes/Yes
Airport map: 
Aerial View: 

Accidents and Serious Incidents at or in the vicinity of EDDH

SKYbrary Partners:

Safety knowledge contributed by: